KBXA/BXA METAR and TAF weather

Enter ICAO airport designator
Station Type Date Time Source
KBXA METAR 2022/01/29 00:55 UTC NOAA

KBXA 290055Z AUTO 33004KT 10SM CLR 07/M04 A3030 RMK AO2 T00671045


Station Type Date Time Source
KBXA Decoded METAR 2022/01/29 00:55 UTC NOAA

Bogalusa, George R Carr Memorial Air Field, LA, United States (KBXA) 30-48-49N 089-51-53W
Jan 28, 2022 - 07:55 PM EST / 2022.01.29 0055 UTC
Wind: from the NNW (330 degrees) at 5 MPH (4 KT):0
Visibility: 10 mile(s):0
Sky conditions: clear
Temperature: 44.1 F (6.7 C)
Dew Point: 23.9 F (-4.5 C)
Relative Humidity: 44%
Pressure (altimeter): 30.3 in. Hg (1026 hPa)
ob: KBXA 290055Z AUTO 33004KT 10SM CLR 07/M04 A3030 RMK AO2 T00671045
cycle: 1

Station Type Date Time Source
KBXA TAF UTC NOAA

Error!

Example: see airport list